Seoul Air Base
RKSM : now visible

Airfield :











YOU CAN JOIN US ON...

 
LOGIN :

Register | Disclaimer

   EN    FR    IT 

 









Legend :    VFR   Marginal VFR   IFR   Intensive IFR   Very Intensive IFR
Visi :
Ceiling :
>= 8 km
>= 3000ft
5 to 8 km
1000 to 3000 ft
1500m to 5 km
500 to 1000 ft
800 to 1500m
200 to 500 ft
< 800m
< 200 ft
Symbols :   Thunderstorms  Fog  Heavy snow  Heavy precipitations  Wind > 20 kt






- Airport Elevation : 92 ft
- IATA code : SSN


RKSM - Seoul Air Base

CURRENT METAR :
  • 190500Z 19003KT 9999 FEW030 BKN200 06/M06 A3041

EXPIRED METARs :
  • 190400Z 25002KT 9999 FEW030 BKN200 05/M05 A3043
  • 190300Z 24004KT 9999 BKN035 03/M07 A3045

TAF TAF RKSM
Valid from the 19 at 00:00 until the 20 at 06:00 UTC


182300Z 1900/2006 24006KT 9999 BKN035
BECMG 1901/1902 24006KT 9999 SCT030
BECMG 1916/1917 21006KT 4800 BR BKN015
BECMG 2000/2001 24006KT 8000 HZ SCT030 TX08/1906Z TNM01/1921Z



MET'MAP, your aeronautical weather chart ! - Copyright ORBIFLY December 2007 - Disclaimer

ORBIFLY MET'MAP TEAM :

Programming & Development : Alexandra Zaïnal
Concept & original design : Baudouin d'Aumeries
Assistance for programming : Marc-Olivier Méhu
Technical & hardware support : Manuel Goepfert

Contact : metmap@orbifly.com




SOURCES & CREDITS :

   NOAA       Earth
Advisory